createdAt,value
2023-08-12T00:00:42.135Z,13.62
2023-08-12T00:02:46.449Z,13.91
2023-08-12T00:04:49.665Z,13.56
2023-08-12T00:06:52.356Z,14.00
2023-08-12T00:08:54.961Z,13.42
2023-08-12T00:10:57.498Z,13.78
2023-08-12T00:13:01.006Z,13.84
2023-08-12T00:15:06.081Z,13.49
2023-08-12T00:17:08.761Z,13.75
2023-08-12T00:19:13.512Z,13.42
2023-08-12T00:21:16.447Z,13.49
2023-08-12T00:23:19.499Z,13.47
2023-08-12T00:25:22.264Z,13.42
2023-08-12T00:27:24.843Z,13.61
2023-08-12T00:29:27.624Z,13.36
2023-08-12T00:31:30.483Z,13.14
2023-08-12T00:33:33.488Z,13.18
2023-08-12T00:35:36.481Z,13.13
2023-08-12T00:37:39.189Z,13.27
2023-08-12T00:39:42.300Z,13.16
2023-08-12T00:41:45.035Z,13.42
2023-08-12T00:43:47.723Z,13.44
2023-08-12T00:45:51.995Z,13.16
2023-08-12T00:47:55.406Z,13.09
2023-08-12T00:49:59.867Z,13.24
2023-08-12T00:52:03.313Z,13.22
2023-08-12T00:54:08.168Z,13.36
2023-08-12T00:56:12.265Z,13.29
2023-08-12T00:58:15.564Z,13.40
2023-08-12T01:00:19.025Z,13.04
2023-08-12T01:02:21.778Z,13.00
2023-08-12T01:04:24.946Z,13.13
2023-08-12T01:06:28.456Z,13.09
2023-08-12T01:08:33.420Z,13.27
2023-08-12T01:10:40.719Z,13.02
2023-08-12T01:13:05.463Z,12.96
2023-08-12T01:15:17.731Z,12.92
2023-08-12T01:17:21.266Z,12.81
2023-08-12T01:19:35.191Z,12.71
2023-08-12T01:21:43.679Z,13.26
2023-08-12T01:23:47.521Z,12.81
2023-08-12T01:25:50.268Z,13.17
2023-08-12T01:27:53.180Z,12.97
2023-08-12T01:29:56.417Z,13.05
2023-08-12T01:32:20.590Z,12.79
2023-08-12T01:34:50.715Z,12.76
2023-08-12T01:36:59.071Z,12.62
2023-08-12T01:39:05.012Z,12.68
2023-08-12T01:41:11.035Z,12.68
2023-08-12T01:43:14.689Z,12.75
2023-08-12T01:45:21.203Z,12.84
2023-08-12T01:47:23.787Z,12.88
2023-08-12T01:49:26.526Z,12.47
2023-08-12T01:51:30.597Z,12.53
2023-08-12T01:53:33.165Z,12.63
2023-08-12T01:55:36.486Z,12.50
2023-08-12T01:57:39.300Z,12.52
2023-08-12T01:59:43.005Z,12.51
2023-08-12T02:01:47.332Z,12.65
2023-08-12T02:03:50.353Z,12.54
2023-08-12T02:05:53.586Z,12.54
2023-08-12T02:07:56.434Z,12.58
2023-08-12T02:09:59.394Z,12.83
2023-08-12T02:12:02.120Z,12.24
2023-08-12T02:14:04.961Z,12.24
2023-08-12T02:16:08.312Z,12.61
2023-08-12T02:18:11.142Z,12.32
2023-08-12T02:20:13.773Z,12.71
2023-08-12T02:22:16.547Z,12.37
2023-08-12T02:24:19.199Z,12.11
2023-08-12T02:26:22.612Z,12.27
2023-08-12T02:28:25.754Z,12.39
2023-08-12T02:30:30.651Z,12.11
2023-08-12T02:32:34.347Z,12.32
2023-08-12T02:34:37.446Z,12.14
2023-08-12T02:36:40.957Z,12.16
2023-08-12T02:38:43.491Z,12.22
2023-08-12T02:40:49.632Z,12.25
2023-08-12T02:42:52.069Z,12.06
2023-08-12T02:44:55.024Z,12.28
2023-08-12T02:46:57.786Z,12.67
2023-08-12T02:49:00.357Z,12.29
2023-08-12T02:51:06.151Z,12.11
2023-08-12T02:53:09.586Z,12.22
2023-08-12T02:55:13.095Z,12.39
2023-08-12T02:57:16.062Z,12.35
2023-08-12T02:59:19.151Z,12.22
2023-08-12T03:01:23.103Z,12.14
2023-08-12T03:03:25.940Z,12.41
2023-08-12T03:05:28.942Z,12.71
2023-08-12T03:07:32.014Z,12.28
2023-08-12T03:09:34.825Z,11.94
2023-08-12T03:11:37.409Z,12.09
2023-08-12T03:13:43.119Z,12.03
2023-08-12T03:15:46.180Z,12.20
2023-08-12T03:17:49.887Z,12.08
2023-08-12T03:19:53.102Z,12.12
2023-08-12T03:21:55.688Z,12.21
2023-08-12T03:23:59.459Z,12.01
2023-08-12T03:26:02.022Z,12.34
2023-08-12T03:28:05.585Z,12.43
2023-08-12T03:30:11.013Z,12.07
2023-08-12T03:32:13.835Z,12.29
2023-08-12T03:34:16.381Z,12.29
2023-08-12T03:36:20.281Z,12.13
2023-08-12T03:38:25.010Z,12.64
2023-08-12T03:40:27.752Z,12.36
2023-08-12T03:42:31.594Z,12.21
2023-08-12T03:44:36.072Z,12.07
2023-08-12T03:46:38.810Z,12.32
2023-08-12T03:48:42.333Z,12.27
2023-08-12T03:50:47.182Z,12.24
2023-08-12T03:52:50.199Z,12.08
2023-08-12T03:54:54.711Z,12.18
2023-08-12T03:56:58.363Z,11.97
2023-08-12T03:59:01.687Z,12.33
2023-08-12T04:01:04.621Z,12.19
2023-08-12T04:03:07.930Z,12.84
2023-08-12T04:05:10.791Z,12.83
2023-08-12T04:07:13.880Z,12.92
2023-08-12T04:09:18.628Z,12.38
2023-08-12T04:11:21.722Z,12.40
2023-08-12T04:13:24.455Z,12.56
2023-08-12T04:15:28.253Z,12.93
2023-08-12T04:17:31.740Z,12.86
2023-08-12T04:19:34.535Z,12.45
2023-08-12T04:21:39.886Z,12.71
2023-08-12T04:23:43.057Z,12.55
2023-08-12T04:25:46.820Z,12.80
2023-08-12T04:27:51.502Z,12.92
2023-08-12T04:29:54.638Z,12.79
2023-08-12T04:31:57.923Z,12.91
2023-08-12T04:34:00.717Z,12.96
2023-08-12T04:36:04.574Z,12.89
2023-08-12T04:38:08.215Z,13.17
2023-08-12T04:40:13.020Z,13.29
2023-08-12T04:42:16.932Z,13.14
2023-08-12T04:44:21.529Z,13.37
2023-08-12T04:46:24.501Z,13.82
2023-08-12T04:48:28.053Z,13.56
2023-08-12T04:50:32.706Z,13.35
2023-08-12T04:52:35.374Z,13.74
2023-08-12T04:54:38.032Z,13.73
2023-08-12T04:56:40.492Z,13.57
2023-08-12T04:58:43.498Z,13.92
2023-08-12T05:00:47.574Z,13.82
2023-08-12T05:02:51.195Z,13.98
2023-08-12T05:04:54.252Z,13.85
2023-08-12T05:06:58.095Z,13.93
2023-08-12T05:09:01.750Z,14.55
2023-08-12T05:11:05.757Z,14.10
2023-08-12T05:13:08.544Z,14.05
2023-08-12T05:15:12.601Z,14.42
2023-08-12T05:17:15.690Z,14.62
2023-08-12T05:19:18.931Z,14.51
2023-08-12T05:21:21.494Z,15.07
2023-08-12T05:23:23.969Z,15.21
2023-08-12T05:25:27.376Z,15.00
2023-08-12T05:27:30.039Z,15.01
2023-08-12T05:29:32.746Z,15.34
2023-08-12T05:31:35.411Z,15.20
2023-08-12T05:33:38.216Z,15.34
2023-08-12T05:35:40.791Z,15.36
2023-08-12T05:37:43.759Z,15.52
2023-08-12T05:39:46.321Z,15.71
2023-08-12T05:41:49.584Z,15.70
2023-08-12T05:43:52.208Z,15.69
2023-08-12T05:45:55.267Z,15.91
2023-08-12T05:47:58.857Z,16.42
2023-08-12T05:50:01.693Z,16.13
2023-08-12T05:52:05.053Z,16.15
2023-08-12T05:54:08.963Z,16.25
2023-08-12T05:56:11.621Z,16.28
2023-08-12T05:58:14.132Z,16.25
2023-08-12T06:00:16.689Z,16.92
2023-08-12T06:02:20.414Z,16.45
2023-08-12T06:04:23.206Z,16.87
2023-08-12T06:06:26.178Z,16.77
2023-08-12T06:08:28.979Z,17.04
2023-08-12T06:10:31.448Z,17.14
2023-08-12T06:12:34.300Z,17.39
2023-08-12T06:14:40.427Z,17.59
2023-08-12T06:16:43.686Z,17.64
2023-08-12T06:18:46.951Z,18.06
2023-08-12T06:20:50.088Z,18.00
2023-08-12T06:22:54.037Z,18.52
2023-08-12T06:24:56.807Z,18.19
2023-08-12T06:26:59.572Z,18.47
2023-08-12T06:29:05.701Z,18.45
2023-08-12T06:31:09.276Z,19.11
2023-08-12T06:33:12.344Z,18.77
2023-08-12T06:35:15.136Z,19.18
2023-08-12T06:37:17.813Z,19.17
2023-08-12T06:39:20.458Z,19.31
2023-08-12T06:41:23.446Z,19.48
2023-08-12T06:43:28.446Z,19.48
2023-08-12T06:45:32.404Z,19.67
2023-08-12T06:47:36.067Z,19.95
2023-08-12T06:49:38.866Z,20.08
2023-08-12T06:51:42.002Z,20.19
2023-08-12T06:53:45.602Z,20.30
2023-08-12T06:55:48.281Z,20.68
2023-08-12T06:57:51.482Z,20.75
2023-08-12T06:59:54.610Z,20.68
2023-08-12T07:01:57.540Z,20.85
2023-08-12T07:04:00.640Z,20.84
2023-08-12T07:06:03.682Z,21.23
2023-08-12T07:08:07.327Z,21.73
2023-08-12T07:10:10.760Z,21.83
2023-08-12T07:12:13.810Z,21.78
2023-08-12T07:14:16.754Z,21.78
2023-08-12T07:16:19.721Z,21.79
2023-08-12T07:18:24.304Z,21.94
2023-08-12T07:20:27.113Z,22.30
2023-08-12T07:22:30.022Z,22.52
2023-08-12T07:24:32.657Z,22.75
2023-08-12T07:26:35.626Z,22.51
2023-08-12T07:28:38.628Z,22.57
2023-08-12T07:30:41.419Z,22.60
2023-08-12T07:32:43.961Z,22.58
2023-08-12T07:34:47.057Z,22.63
2023-08-12T07:36:50.191Z,23.09
2023-08-12T07:38:52.981Z,23.09
2023-08-12T07:40:56.506Z,23.26
2023-08-12T07:42:59.543Z,23.48
2023-08-12T07:45:02.124Z,23.18
2023-08-12T07:47:06.581Z,23.32
2023-08-12T07:49:09.812Z,23.46
2023-08-12T07:51:13.145Z,23.52
2023-08-12T07:53:17.333Z,23.49
2023-08-12T07:55:21.024Z,24.01
2023-08-12T07:57:25.540Z,24.07
2023-08-12T07:59:28.102Z,24.32
2023-08-12T08:01:30.780Z,24.23
2023-08-12T08:03:33.579Z,24.25
2023-08-12T08:05:36.959Z,24.06
2023-08-12T08:07:39.906Z,24.15
2023-08-12T08:09:42.509Z,24.45
2023-08-12T08:11:45.428Z,24.73
2023-08-12T08:13:48.544Z,24.58
2023-08-12T08:15:51.423Z,24.88
2023-08-12T08:17:55.167Z,25.02
2023-08-12T08:19:58.424Z,24.94
2023-08-12T08:22:01.461Z,25.11
2023-08-12T08:24:04.363Z,25.34
2023-08-12T08:26:07.418Z,25.32
2023-08-12T08:28:10.408Z,25.60
2023-08-12T08:30:13.569Z,25.57
2023-08-12T08:32:18.913Z,25.55
2023-08-12T08:34:21.706Z,25.51
2023-08-12T08:36:24.662Z,25.53
2023-08-12T08:38:27.306Z,25.48
2023-08-12T08:40:30.145Z,26.00
2023-08-12T08:42:33.300Z,26.07
2023-08-12T08:44:37.021Z,25.92
2023-08-12T08:46:39.800Z,26.19
2023-08-12T08:48:48.579Z,26.39
2023-08-12T08:50:53.713Z,26.42
2023-08-12T08:52:58.495Z,26.59
2023-08-12T08:55:04.242Z,26.61
2023-08-12T08:57:20.340Z,26.56
2023-08-12T08:59:25.999Z,27.05
2023-08-12T09:01:30.693Z,26.84
2023-08-12T09:03:39.933Z,26.71
2023-08-12T09:05:44.299Z,27.07
2023-08-12T09:07:48.001Z,27.16
2023-08-12T09:09:54.241Z,27.43
2023-08-12T09:11:57.190Z,27.56
2023-08-12T09:14:00.138Z,27.55
2023-08-12T09:16:03.525Z,27.50
2023-08-12T09:18:08.026Z,27.57
2023-08-12T09:20:13.807Z,27.74
2023-08-12T09:22:16.989Z,27.80
2023-08-12T09:24:29.089Z,27.77
2023-08-12T09:26:32.039Z,27.94
2023-08-12T09:28:38.737Z,27.98
2023-08-12T09:30:42.621Z,27.92
2023-08-12T09:33:01.167Z,28.02
2023-08-12T09:35:05.316Z,28.10
2023-08-12T09:37:08.844Z,28.39
2023-08-12T09:39:12.150Z,28.07
2023-08-12T09:41:15.942Z,28.23
2023-08-12T09:43:18.566Z,28.45
2023-08-12T09:45:26.225Z,28.57
2023-08-12T09:47:29.522Z,28.86
2023-08-12T09:49:32.345Z,28.46
2023-08-12T09:51:38.443Z,28.44
2023-08-12T09:53:43.477Z,28.42
2023-08-12T09:55:50.872Z,28.49
2023-08-12T09:57:55.440Z,28.39
2023-08-12T09:59:59.799Z,28.45
2023-08-12T10:02:10.648Z,28.60
2023-08-12T10:04:18.784Z,28.50
2023-08-12T10:06:22.749Z,28.47
2023-08-12T10:08:26.939Z,28.54
2023-08-12T10:10:31.937Z,28.75
2023-08-12T10:12:36.493Z,28.70
2023-08-12T10:14:40.372Z,29.03
2023-08-12T10:16:48.790Z,29.03
2023-08-12T10:18:52.951Z,29.28
2023-08-12T10:20:59.479Z,29.35
2023-08-12T10:23:03.504Z,29.11
2023-08-12T10:25:09.701Z,29.42
2023-08-12T10:27:14.542Z,29.07
2023-08-12T10:29:17.585Z,29.14
2023-08-12T10:31:21.908Z,29.11
2023-08-12T10:33:24.918Z,29.27
2023-08-12T10:35:43.520Z,29.59
2023-08-12T10:37:52.172Z,29.85
2023-08-12T10:39:55.985Z,30.35
2023-08-12T10:42:00.075Z,30.05
2023-08-12T10:44:06.493Z,29.86
2023-08-12T10:46:23.798Z,30.32
2023-08-12T10:48:27.621Z,30.34
2023-08-12T10:50:32.780Z,30.20
2023-08-12T10:52:36.525Z,30.30
2023-08-12T10:54:39.871Z,30.31
2023-08-12T10:57:04.311Z,30.25
2023-08-12T10:59:07.154Z,29.93
2023-08-12T11:01:19.045Z,30.03
2023-08-12T11:03:22.700Z,30.53
2023-08-12T11:05:26.537Z,30.42
2023-08-12T11:08:02.682Z,30.95
2023-08-12T11:10:15.442Z,30.84
2023-08-12T11:12:35.031Z,30.48
2023-08-12T11:14:54.882Z,30.17
2023-08-12T11:16:57.834Z,30.36
2023-08-12T11:19:00.962Z,30.61
2023-08-12T11:21:05.242Z,31.22
2023-08-12T11:23:09.804Z,31.10
2023-08-12T11:25:14.830Z,30.90
2023-08-12T11:27:19.700Z,30.82
2023-08-12T11:29:25.489Z,30.83
2023-08-12T11:31:28.975Z,30.90
2023-08-12T11:33:34.332Z,31.20
2023-08-12T11:35:37.948Z,31.19
2023-08-12T11:37:43.248Z,31.37
2023-08-12T11:39:47.213Z,31.28
2023-08-12T11:41:51.892Z,31.20
2023-08-12T11:43:54.618Z,31.03
2023-08-12T11:45:58.256Z,30.74
2023-08-12T11:48:01.309Z,31.00
2023-08-12T11:50:09.649Z,31.20
2023-08-12T11:52:13.893Z,31.07
2023-08-12T11:54:17.510Z,31.14
2023-08-12T11:56:21.949Z,31.45
2023-08-12T11:58:25.381Z,31.32
2023-08-12T12:00:28.973Z,31.33
2023-08-12T12:02:31.722Z,31.13
2023-08-12T12:04:36.398Z,31.10
2023-08-12T12:06:39.834Z,31.27
2023-08-12T12:08:42.969Z,31.33
2023-08-12T12:10:45.614Z,31.11
2023-08-12T12:12:48.516Z,30.93
2023-08-12T12:14:54.528Z,30.89
2023-08-12T12:16:57.371Z,31.14
2023-08-12T12:19:00.697Z,31.53
2023-08-12T12:21:03.563Z,31.62
2023-08-12T12:23:09.732Z,31.33
2023-08-12T12:25:15.159Z,31.22
2023-08-12T12:27:17.720Z,31.62
2023-08-12T12:29:21.956Z,31.96
2023-08-12T12:31:24.678Z,31.90
2023-08-12T12:33:27.457Z,31.93
2023-08-12T12:37:33.713Z,32.00
2023-08-12T12:39:36.638Z,32.47
2023-08-12T12:41:39.387Z,32.46
2023-08-12T12:43:42.430Z,32.67
2023-08-12T12:45:45.534Z,33.06
2023-08-12T12:47:49.114Z,33.16
2023-08-12T12:49:52.774Z,33.03
2023-08-12T12:51:55.973Z,32.95
2023-08-12T12:53:58.594Z,32.51
2023-08-12T12:56:05.835Z,32.41
2023-08-12T12:58:10.543Z,32.37
2023-08-12T13:00:15.916Z,32.31
2023-08-12T13:02:18.979Z,32.57
2023-08-12T13:04:21.583Z,32.85
2023-08-12T13:06:24.513Z,33.22
2023-08-12T13:08:27.320Z,33.41
2023-08-12T13:10:30.602Z,33.11
2023-08-12T13:12:33.194Z,32.90
2023-08-12T13:14:36.162Z,32.71
2023-08-12T13:16:39.093Z,32.47
2023-08-12T13:18:41.836Z,32.65
2023-08-12T13:20:44.818Z,32.64
2023-08-12T13:22:47.887Z,32.76
2023-08-12T13:24:50.638Z,32.31
2023-08-12T13:26:57.024Z,32.06
2023-08-12T13:29:01.614Z,32.22
2023-08-12T13:31:04.710Z,32.36
2023-08-12T13:33:07.447Z,32.14
2023-08-12T13:35:10.628Z,32.19
2023-08-12T13:37:14.180Z,32.53
2023-08-12T13:39:17.202Z,32.61
2023-08-12T13:41:19.769Z,32.56
2023-08-12T13:43:22.881Z,32.73
2023-08-12T13:45:25.714Z,32.69
2023-08-12T13:47:28.693Z,32.51
2023-08-12T13:49:31.428Z,32.32
2023-08-12T13:51:34.341Z,32.41
2023-08-12T13:53:37.475Z,32.58
2023-08-12T13:55:39.915Z,32.24
2023-08-12T13:57:43.044Z,32.25
2023-08-12T13:59:46.053Z,32.40
2023-08-12T14:01:48.713Z,32.36
2023-08-12T14:03:51.620Z,32.67
2023-08-12T14:05:54.513Z,32.50
2023-08-12T14:07:57.383Z,32.45
2023-08-12T14:10:01.391Z,32.26
2023-08-12T14:12:04.909Z,31.98
2023-08-12T14:14:08.024Z,32.17
2023-08-12T14:16:11.031Z,32.44
2023-08-12T14:18:14.030Z,32.80
2023-08-12T14:20:17.121Z,32.79
2023-08-12T14:22:20.192Z,32.82
2023-08-12T14:24:23.098Z,32.38
2023-08-12T14:26:25.870Z,32.49
2023-08-12T14:28:28.425Z,32.47
2023-08-12T14:30:31.400Z,32.52
2023-08-12T14:32:34.034Z,32.62
2023-08-12T14:34:40.700Z,32.22
2023-08-12T14:36:44.038Z,32.06
2023-08-12T14:38:47.202Z,32.14
2023-08-12T14:40:51.019Z,32.20
2023-08-12T14:42:54.142Z,32.27
2023-08-12T14:44:56.949Z,32.09
2023-08-12T14:47:03.210Z,32.27
2023-08-12T14:49:05.979Z,32.50
2023-08-12T14:51:08.747Z,32.47
2023-08-12T14:53:11.864Z,32.27
2023-08-12T14:55:14.610Z,31.88
2023-08-12T14:57:17.223Z,31.68
2023-08-12T14:59:20.264Z,31.39
2023-08-12T15:01:25.655Z,31.36
2023-08-12T15:03:28.367Z,31.43
2023-08-12T15:05:32.359Z,31.58
2023-08-12T15:07:35.088Z,31.45
2023-08-12T15:09:38.992Z,31.48
2023-08-12T15:11:41.686Z,31.49
2023-08-12T15:13:44.464Z,31.06
2023-08-12T15:15:48.435Z,31.17
2023-08-12T15:17:51.245Z,31.45
2023-08-12T15:19:54.837Z,31.58
2023-08-12T15:21:59.625Z,31.64
2023-08-12T15:24:02.500Z,31.69
2023-08-12T15:26:06.317Z,31.49
2023-08-12T15:28:09.174Z,31.50
2023-08-12T15:30:12.385Z,31.53
2023-08-12T15:32:15.425Z,31.67
2023-08-12T15:34:18.308Z,31.58
2023-08-12T15:36:21.527Z,31.24
2023-08-12T15:38:24.469Z,30.95
2023-08-12T15:40:27.043Z,31.29
2023-08-12T15:42:30.093Z,31.30
2023-08-12T15:44:32.954Z,31.37
2023-08-12T15:46:37.068Z,31.38
2023-08-12T15:48:39.895Z,31.50
2023-08-12T15:50:46.820Z,31.45
2023-08-12T15:52:49.984Z,31.43
2023-08-12T15:54:53.275Z,31.33
2023-08-12T15:56:58.169Z,31.36
2023-08-12T15:59:01.132Z,31.02
2023-08-12T16:01:04.686Z,30.79
2023-08-12T16:03:07.694Z,30.51
2023-08-12T16:05:10.817Z,30.79
2023-08-12T16:07:14.129Z,30.89
2023-08-12T16:09:19.194Z,30.81
2023-08-12T16:11:23.680Z,31.07
2023-08-12T16:13:27.086Z,30.95
2023-08-12T16:15:30.196Z,30.79
2023-08-12T16:17:32.736Z,30.70
2023-08-12T16:19:36.038Z,30.39
2023-08-12T16:21:39.165Z,30.37
2023-08-12T16:23:41.790Z,30.21
2023-08-12T16:25:45.501Z,30.40
2023-08-12T16:27:50.245Z,30.17
2023-08-12T16:29:52.967Z,30.08
2023-08-12T16:31:56.037Z,30.06
2023-08-12T16:33:58.971Z,29.92
2023-08-12T16:36:01.638Z,29.66
2023-08-12T16:38:05.611Z,29.59
2023-08-12T16:40:10.593Z,29.69
2023-08-12T16:42:13.812Z,29.54
2023-08-12T16:44:17.203Z,29.40
2023-08-12T16:46:20.082Z,29.08
2023-08-12T16:48:23.136Z,29.29
2023-08-12T16:50:25.941Z,28.97
2023-08-12T16:52:28.908Z,28.92
2023-08-12T16:54:31.935Z,28.82
2023-08-12T16:56:34.404Z,28.81
2023-08-12T16:58:37.949Z,28.72
2023-08-12T17:00:41.176Z,28.69
2023-08-12T17:02:44.501Z,28.62
2023-08-12T17:04:47.347Z,28.40
2023-08-12T17:06:50.710Z,28.41
2023-08-12T17:08:53.466Z,28.31
2023-08-12T17:10:58.192Z,28.00
2023-08-12T17:13:01.754Z,27.99
2023-08-12T17:15:05.244Z,28.04
2023-08-12T17:17:08.731Z,27.66
2023-08-12T17:19:11.842Z,27.45
2023-08-12T17:21:14.908Z,27.78
2023-08-12T17:23:17.944Z,27.22
2023-08-12T17:25:21.266Z,27.51
2023-08-12T17:27:24.555Z,27.35
2023-08-12T17:29:27.360Z,27.37
2023-08-12T17:31:30.181Z,26.94
2023-08-12T17:33:33.469Z,27.08
2023-08-12T17:35:36.433Z,27.01
2023-08-12T17:37:40.426Z,26.84
2023-08-12T17:39:43.347Z,26.91
2023-08-12T17:41:46.621Z,26.70
2023-08-12T17:43:50.392Z,26.71
2023-08-12T17:45:53.441Z,26.75
2023-08-12T17:47:58.817Z,26.47
2023-08-12T17:50:02.015Z,26.65
2023-08-12T17:52:05.593Z,26.34
2023-08-12T17:54:08.537Z,26.26
2023-08-12T17:56:12.493Z,26.12
2023-08-12T17:58:16.126Z,26.02
2023-08-12T18:00:19.026Z,25.88
2023-08-12T18:02:21.842Z,25.82
2023-08-12T18:04:24.837Z,25.60
2023-08-12T18:06:28.140Z,25.60
2023-08-12T18:08:31.537Z,25.41
2023-08-12T18:10:34.280Z,25.39
2023-08-12T18:12:37.112Z,25.08
2023-08-12T18:14:40.106Z,24.70
2023-08-12T18:16:43.344Z,24.89
2023-08-12T18:18:46.513Z,24.58
2023-08-12T18:20:49.616Z,24.58
2023-08-12T18:22:52.240Z,24.62
2023-08-12T18:24:55.085Z,24.19
2023-08-12T18:26:58.099Z,24.48
2023-08-12T18:29:01.043Z,24.09
2023-08-12T18:31:04.128Z,23.89
2023-08-12T18:33:07.529Z,23.57
2023-08-12T18:35:11.536Z,23.85
2023-08-12T18:37:14.820Z,23.75
2023-08-12T18:39:18.784Z,23.44
2023-08-12T18:41:21.609Z,23.25
2023-08-12T18:43:25.440Z,23.04
2023-08-12T18:45:30.664Z,23.20
2023-08-12T18:47:34.549Z,22.95
2023-08-12T18:49:37.656Z,22.84
2023-08-12T18:51:40.589Z,23.07
2023-08-12T18:53:43.815Z,22.60
2023-08-12T18:55:46.348Z,22.73
2023-08-12T18:57:50.664Z,22.25
2023-08-12T18:59:54.416Z,22.47
2023-08-12T19:01:58.920Z,22.42
2023-08-12T19:04:01.616Z,22.14
2023-08-12T19:06:05.643Z,22.19
2023-08-12T19:08:08.280Z,22.28
2023-08-12T19:10:12.034Z,21.63
2023-08-12T19:12:15.173Z,21.97
2023-08-12T19:14:18.256Z,21.72
2023-08-12T19:16:21.212Z,21.88
2023-08-12T19:18:25.557Z,21.87
2023-08-12T19:20:28.133Z,21.30
2023-08-12T19:22:31.396Z,21.35
2023-08-12T19:24:34.296Z,21.22
2023-08-12T19:26:37.770Z,21.29
2023-08-12T19:28:40.503Z,21.57
2023-08-12T19:30:43.960Z,21.46
2023-08-12T19:32:55.734Z,21.13
2023-08-12T19:34:58.670Z,21.08
2023-08-12T19:37:02.004Z,21.20
2023-08-12T19:39:05.439Z,21.24
2023-08-12T19:41:08.431Z,20.78
2023-08-12T19:43:11.389Z,21.13
2023-08-12T19:45:16.011Z,20.90
2023-08-12T19:47:20.428Z,20.96
2023-08-12T19:49:24.295Z,21.12
2023-08-12T19:51:27.446Z,20.70
2023-08-12T19:53:30.538Z,20.95
2023-08-12T19:55:34.312Z,20.61
2023-08-12T19:57:37.347Z,20.72
2023-08-12T19:59:40.587Z,20.78
2023-08-12T20:01:44.197Z,20.55
2023-08-12T20:03:47.436Z,20.52
2023-08-12T20:05:50.508Z,20.34
2023-08-12T20:07:54.000Z,20.36
2023-08-12T20:09:56.854Z,20.20
2023-08-12T20:12:00.047Z,20.07
2023-08-12T20:14:03.570Z,19.99
2023-08-12T20:16:06.573Z,20.14
2023-08-12T20:18:09.607Z,19.59
2023-08-12T20:20:15.483Z,19.93
2023-08-12T20:22:19.291Z,20.05
2023-08-12T20:24:23.125Z,19.73
2023-08-12T20:26:27.801Z,20.14
2023-08-12T20:28:31.095Z,20.15
2023-08-12T20:30:35.157Z,19.80
2023-08-12T20:32:40.189Z,19.99
2023-08-12T20:34:44.152Z,19.76
2023-08-12T20:36:47.423Z,19.84
2023-08-12T20:38:51.138Z,19.83
2023-08-12T20:40:54.317Z,19.61
2023-08-12T20:42:57.534Z,19.56
2023-08-12T20:45:00.503Z,19.43
2023-08-12T20:47:03.395Z,19.54
2023-08-12T20:49:06.149Z,19.62
2023-08-12T20:51:09.150Z,19.62
2023-08-12T20:53:12.366Z,19.65
2023-08-12T20:55:15.039Z,19.66
2023-08-12T20:57:18.905Z,19.18
2023-08-12T20:59:22.038Z,19.14
2023-08-12T21:01:25.151Z,19.67
2023-08-12T21:03:28.372Z,19.57
2023-08-12T21:05:31.961Z,19.33
2023-08-12T21:07:35.246Z,19.20
2023-08-12T21:09:37.896Z,19.20
2023-08-12T21:11:40.753Z,19.19
2023-08-12T21:13:43.451Z,19.39
2023-08-12T21:15:46.390Z,19.11
2023-08-12T21:17:49.611Z,19.46
2023-08-12T21:19:52.476Z,19.31
2023-08-12T21:21:55.622Z,19.21
2023-08-12T21:23:58.485Z,19.27
2023-08-12T21:26:01.622Z,19.15
2023-08-12T21:28:05.717Z,19.33
2023-08-12T21:30:10.619Z,19.53
2023-08-12T21:32:13.867Z,19.33
2023-08-12T21:34:16.884Z,19.28
2023-08-12T21:36:19.647Z,19.42
2023-08-12T21:38:22.740Z,19.57
2023-08-12T21:40:26.164Z,19.66
2023-08-12T21:42:29.048Z,19.08
2023-08-12T21:44:32.181Z,19.40
2023-08-12T21:46:36.013Z,19.16
2023-08-12T21:48:38.974Z,19.05
2023-08-12T21:50:42.564Z,19.20
2023-08-12T21:52:45.638Z,18.97
2023-08-12T21:54:49.418Z,19.03
2023-08-12T21:56:52.324Z,19.20
2023-08-12T21:58:56.442Z,19.17
2023-08-12T22:00:59.749Z,19.03
2023-08-12T22:03:02.450Z,18.81
2023-08-12T22:05:06.722Z,18.76
2023-08-12T22:07:09.897Z,18.84
2023-08-12T22:09:12.955Z,18.53
2023-08-12T22:11:16.220Z,18.47
2023-08-12T22:13:19.139Z,18.54
2023-08-12T22:15:21.754Z,18.62
2023-08-12T22:17:24.916Z,18.54
2023-08-12T22:19:27.519Z,18.57
2023-08-12T22:21:30.088Z,18.67
2023-08-12T22:23:33.223Z,19.16
2023-08-12T22:25:35.808Z,18.66
2023-08-12T22:27:38.818Z,18.68
2023-08-12T22:29:42.579Z,18.53
2023-08-12T22:31:45.460Z,18.48
2023-08-12T22:33:48.847Z,18.68
2023-08-12T22:35:52.052Z,18.63
2023-08-12T22:37:54.643Z,19.09
2023-08-12T22:39:57.326Z,18.77
2023-08-12T22:42:00.894Z,19.03
2023-08-12T22:44:03.721Z,18.90
2023-08-12T22:46:06.376Z,18.58
2023-08-12T22:48:09.310Z,18.50
2023-08-12T22:50:13.924Z,18.57
2023-08-12T22:52:16.813Z,18.70
2023-08-12T22:54:20.079Z,18.59
2023-08-12T22:56:22.899Z,18.62
2023-08-12T22:58:25.538Z,18.33
2023-08-12T23:00:28.597Z,18.78
2023-08-12T23:02:32.580Z,18.79
2023-08-12T23:04:35.242Z,18.75
2023-08-12T23:06:37.908Z,18.43
2023-08-12T23:08:40.815Z,18.21
2023-08-12T23:10:43.765Z,18.52
2023-08-12T23:12:46.728Z,18.40
2023-08-12T23:14:49.479Z,18.12
2023-08-12T23:16:52.645Z,18.47
2023-08-12T23:18:55.212Z,18.24
2023-08-12T23:20:57.819Z,18.07
2023-08-12T23:23:00.692Z,18.37
2023-08-12T23:25:03.791Z,18.52
2023-08-12T23:27:06.892Z,17.97
2023-08-12T23:29:09.675Z,18.24
2023-08-12T23:31:15.127Z,18.10
2023-08-12T23:33:17.868Z,18.26
2023-08-12T23:35:20.951Z,17.96
2023-08-12T23:37:24.073Z,17.97
2023-08-12T23:39:28.451Z,18.24
2023-08-12T23:41:32.506Z,18.19
2023-08-12T23:43:35.193Z,18.30
2023-08-12T23:45:38.624Z,18.29
2023-08-12T23:47:42.582Z,18.39
2023-08-12T23:49:45.308Z,18.20
2023-08-12T23:51:49.610Z,18.19
2023-08-12T23:53:52.947Z,18.44
2023-08-12T23:55:55.617Z,18.52
2023-08-12T23:57:58.600Z,18.58
